RORT(METAR)
07/27 16:00
RORT 270700Z 06006KT 9999 SCT010 BKN016 30/27 Q0994 RMK A2938=
戻る
トップページへ戻る
IMOC Co,.Ltd.